sensor_id;sensor_type;location;lat;lon;timestamp;P1;durP1;ratioP1;P2;durP2;ratioP2
52618;SDS011;38513;53.234;6.568;2023-06-04T00:00:37;11.07;;;5.03;;
52618;SDS011;38513;53.234;6.568;2023-06-04T00:03:03;13.73;;;5.50;;
52618;SDS011;38513;53.234;6.568;2023-06-04T00:05:29;14.38;;;6.00;;
52618;SDS011;38513;53.234;6.568;2023-06-04T00:07:56;13.90;;;5.65;;
52618;SDS011;38513;53.234;6.568;2023-06-04T00:10:22;12.87;;;5.87;;
52618;SDS011;38513;53.234;6.568;2023-06-04T00:12:48;14.40;;;5.63;;
52618;SDS011;38513;53.234;6.568;2023-06-04T00:15:14;11.07;;;5.63;;
52618;SDS011;38513;53.234;6.568;2023-06-04T00:17:44;14.35;;;6.38;;
52618;SDS011;38513;53.234;6.568;2023-06-04T00:20:10;11.73;;;5.85;;
52618;SDS011;38513;53.234;6.568;2023-06-04T00:22:37;14.60;;;6.50;;
52618;SDS011;38513;53.234;6.568;2023-06-04T00:25:07;13.60;;;6.90;;
52618;SDS011;38513;53.234;6.568;2023-06-04T00:27:33;13.85;;;6.50;;
52618;SDS011;38513;53.234;6.568;2023-06-04T00:29:59;13.18;;;6.20;;
52618;SDS011;38513;53.234;6.568;2023-06-04T00:32:25;13.55;;;6.18;;
52618;SDS011;38513;53.234;6.568;2023-06-04T00:34:52;12.40;;;5.85;;
52618;SDS011;38513;53.234;6.568;2023-06-04T00:37:18;12.20;;;6.13;;
52618;SDS011;38513;53.234;6.568;2023-06-04T00:39:45;12.00;;;6.20;;
52618;SDS011;38513;53.234;6.568;2023-06-04T00:42:12;13.48;;;5.80;;
52618;SDS011;38513;53.234;6.568;2023-06-04T00:44:45;13.93;;;6.40;;
52618;SDS011;38513;53.234;6.568;2023-06-04T00:47:13;13.48;;;6.35;;
52618;SDS011;38513;53.234;6.568;2023-06-04T00:49:39;12.65;;;6.00;;
52618;SDS011;38513;53.234;6.568;2023-06-04T00:52:07;14.45;;;6.75;;
52618;SDS011;38513;53.234;6.568;2023-06-04T00:54:34;15.55;;;6.70;;
52618;SDS011;38513;53.234;6.568;2023-06-04T00:57:00;13.90;;;6.17;;
52618;SDS011;38513;53.234;6.568;2023-06-04T00:59:27;14.02;;;6.78;;
52618;SDS011;38513;53.234;6.568;2023-06-04T01:01:55;14.68;;;6.47;;
52618;SDS011;38513;53.234;6.568;2023-06-04T01:04:27;13.63;;;6.60;;
52618;SDS011;38513;53.234;6.568;2023-06-04T01:06:56;13.13;;;7.40;;
52618;SDS011;38513;53.234;6.568;2023-06-04T01:09:26;14.30;;;6.82;;
52618;SDS011;38513;53.234;6.568;2023-06-04T01:11:53;14.38;;;6.68;;
52618;SDS011;38513;53.234;6.568;2023-06-04T01:14:19;14.35;;;6.13;;
52618;SDS011;38513;53.234;6.568;2023-06-04T01:16:51;13.70;;;6.32;;
52618;SDS011;38513;53.234;6.568;2023-06-04T01:21:56;15.97;;;6.80;;
52618;SDS011;38513;53.234;6.568;2023-06-04T01:24:26;15.05;;;6.43;;
52618;SDS011;38513;53.234;6.568;2023-06-04T01:26:53;15.48;;;6.35;;
52618;SDS011;38513;53.234;6.568;2023-06-04T01:29:21;12.07;;;6.00;;
52618;SDS011;38513;53.234;6.568;2023-06-04T01:31:49;12.50;;;6.40;;
52618;SDS011;38513;53.234;6.568;2023-06-04T01:34:18;14.88;;;6.00;;
52618;SDS011;38513;53.234;6.568;2023-06-04T01:36:44;14.30;;;5.82;;
52618;SDS011;38513;53.234;6.568;2023-06-04T01:39:10;11.88;;;5.93;;
52618;SDS011;38513;53.234;6.568;2023-06-04T01:41:37;12.98;;;5.78;;
52618;SDS011;38513;53.234;6.568;2023-06-04T01:44:03;13.23;;;6.15;;
52618;SDS011;38513;53.234;6.568;2023-06-04T01:46:29;16.93;;;6.20;;
52618;SDS011;38513;53.234;6.568;2023-06-04T01:48:56;13.77;;;5.93;;
52618;SDS011;38513;53.234;6.568;2023-06-04T01:51:22;14.90;;;6.27;;
52618;SDS011;38513;53.234;6.568;2023-06-04T01:53:48;13.68;;;6.35;;
52618;SDS011;38513;53.234;6.568;2023-06-04T01:56:18;13.83;;;5.80;;
52618;SDS011;38513;53.234;6.568;2023-06-04T01:58:46;10.77;;;5.95;;
52618;SDS011;38513;53.234;6.568;2023-06-04T02:01:12;13.68;;;6.57;;
52618;SDS011;38513;53.234;6.568;2023-06-04T02:03:38;15.03;;;6.60;;
52618;SDS011;38513;53.234;6.568;2023-06-04T02:06:05;15.23;;;6.50;;
52618;SDS011;38513;53.234;6.568;2023-06-04T02:08:33;13.77;;;6.55;;
52618;SDS011;38513;53.234;6.568;2023-06-04T02:11:00;15.77;;;6.70;;
52618;SDS011;38513;53.234;6.568;2023-06-04T02:13:26;14.68;;;6.50;;
52618;SDS011;38513;53.234;6.568;2023-06-04T02:15:53;16.95;;;7.00;;
52618;SDS011;38513;53.234;6.568;2023-06-04T02:18:19;15.10;;;6.70;;
52618;SDS011;38513;53.234;6.568;2023-06-04T02:20:47;15.75;;;7.22;;
52618;SDS011;38513;53.234;6.568;2023-06-04T02:23:14;13.57;;;7.25;;
52618;SDS011;38513;53.234;6.568;2023-06-04T02:25:44;14.15;;;7.78;;
52618;SDS011;38513;53.234;6.568;2023-06-04T02:28:11;17.52;;;8.15;;
52618;SDS011;38513;53.234;6.568;2023-06-04T02:30:37;17.00;;;7.82;;
52618;SDS011;38513;53.234;6.568;2023-06-04T02:33:03;18.63;;;8.53;;
52618;SDS011;38513;53.234;6.568;2023-06-04T02:35:31;17.97;;;8.60;;
52618;SDS011;38513;53.234;6.568;2023-06-04T02:37:57;14.13;;;7.28;;
52618;SDS011;38513;53.234;6.568;2023-06-04T02:40:24;12.23;;;6.83;;
52618;SDS011;38513;53.234;6.568;2023-06-04T02:42:51;12.55;;;6.38;;
52618;SDS011;38513;53.234;6.568;2023-06-04T02:45:18;16.60;;;5.80;;
52618;SDS011;38513;53.234;6.568;2023-06-04T02:47:44;12.00;;;5.20;;
52618;SDS011;38513;53.234;6.568;2023-06-04T02:50:13;10.35;;;4.07;;
52618;SDS011;38513;53.234;6.568;2023-06-04T02:52:41;7.35;;;3.50;;
52618;SDS011;38513;53.234;6.568;2023-06-04T02:55:07;8.35;;;3.40;;
52618;SDS011;38513;53.234;6.568;2023-06-04T02:57:39;9.80;;;3.75;;
52618;SDS011;38513;53.234;6.568;2023-06-04T03:00:06;10.77;;;4.20;;
52618;SDS011;38513;53.234;6.568;2023-06-04T03:02:41;10.57;;;4.50;;
52618;SDS011;38513;53.234;6.568;2023-06-04T03:05:07;11.65;;;4.63;;
52618;SDS011;38513;53.234;6.568;2023-06-04T03:07:35;9.68;;;4.05;;
52618;SDS011;38513;53.234;6.568;2023-06-04T03:10:02;9.25;;;4.53;;
52618;SDS011;38513;53.234;6.568;2023-06-04T03:12:29;7.43;;;4.30;;
52618;SDS011;38513;53.234;6.568;2023-06-04T03:14:55;9.55;;;5.15;;
52618;SDS011;38513;53.234;6.568;2023-06-04T03:17:22;11.00;;;5.65;;
52618;SDS011;38513;53.234;6.568;2023-06-04T03:19:48;10.63;;;5.20;;
52618;SDS011;38513;53.234;6.568;2023-06-04T03:22:14;8.88;;;4.75;;
52618;SDS011;38513;53.234;6.568;2023-06-04T03:24:43;12.52;;;4.95;;
52618;SDS011;38513;53.234;6.568;2023-06-04T03:27:09;15.93;;;7.03;;
52618;SDS011;38513;53.234;6.568;2023-06-04T03:29:36;12.05;;;6.30;;
52618;SDS011;38513;53.234;6.568;2023-06-04T03:32:02;13.33;;;6.87;;
52618;SDS011;38513;53.234;6.568;2023-06-04T03:34:29;13.63;;;6.63;;
52618;SDS011;38513;53.234;6.568;2023-06-04T03:36:58;15.13;;;7.27;;
52618;SDS011;38513;53.234;6.568;2023-06-04T03:39:25;14.67;;;6.90;;
52618;SDS011;38513;53.234;6.568;2023-06-04T03:41:51;16.25;;;7.35;;
52618;SDS011;38513;53.234;6.568;2023-06-04T03:44:18;15.50;;;7.50;;
52618;SDS011;38513;53.234;6.568;2023-06-04T03:46:44;15.10;;;7.45;;
52618;SDS011;38513;53.234;6.568;2023-06-04T03:49:12;11.90;;;6.20;;
52618;SDS011;38513;53.234;6.568;2023-06-04T03:51:39;11.30;;;5.90;;
52618;SDS011;38513;53.234;6.568;2023-06-04T03:54:05;16.90;;;6.40;;
52618;SDS011;38513;53.234;6.568;2023-06-04T03:56:31;12.43;;;6.97;;
52618;SDS011;38513;53.234;6.568;2023-06-04T03:58:58;11.23;;;6.60;;
52618;SDS011;38513;53.234;6.568;2023-06-04T04:01:24;11.43;;;6.38;;
52618;SDS011;38513;53.234;6.568;2023-06-04T04:03:51;10.38;;;5.65;;
52618;SDS011;38513;53.234;6.568;2023-06-04T04:06:17;10.63;;;5.75;;
52618;SDS011;38513;53.234;6.568;2023-06-04T04:08:44;9.80;;;5.30;;
52618;SDS011;38513;53.234;6.568;2023-06-04T04:11:14;10.50;;;5.82;;
52618;SDS011;38513;53.234;6.568;2023-06-04T04:13:46;12.00;;;5.97;;
52618;SDS011;38513;53.234;6.568;2023-06-04T04:16:12;12.15;;;5.40;;
52618;SDS011;38513;53.234;6.568;2023-06-04T04:18:40;14.45;;;6.90;;
52618;SDS011;38513;53.234;6.568;2023-06-04T04:21:06;14.20;;;7.38;;
52618;SDS011;38513;53.234;6.568;2023-06-04T04:23:33;13.93;;;7.22;;
52618;SDS011;38513;53.234;6.568;2023-06-04T04:25:59;12.90;;;6.88;;
52618;SDS011;38513;53.234;6.568;2023-06-04T04:28:26;13.60;;;6.53;;
52618;SDS011;38513;53.234;6.568;2023-06-04T04:30:54;11.68;;;6.82;;
52618;SDS011;38513;53.234;6.568;2023-06-04T04:33:22;12.85;;;6.90;;
52618;SDS011;38513;53.234;6.568;2023-06-04T04:35:49;15.13;;;7.00;;
52618;SDS011;38513;53.234;6.568;2023-06-04T04:38:16;13.15;;;6.88;;
52618;SDS011;38513;53.234;6.568;2023-06-04T04:40:43;11.95;;;6.20;;
52618;SDS011;38513;53.234;6.568;2023-06-04T04:43:09;10.95;;;6.07;;
52618;SDS011;38513;53.234;6.568;2023-06-04T04:45:35;10.88;;;6.85;;
52618;SDS011;38513;53.234;6.568;2023-06-04T04:48:01;12.88;;;6.85;;
52618;SDS011;38513;53.234;6.568;2023-06-04T04:50:27;13.63;;;7.40;;
52618;SDS011;38513;53.234;6.568;2023-06-04T04:52:53;13.40;;;7.10;;
52618;SDS011;38513;53.234;6.568;2023-06-04T04:55:20;13.10;;;7.13;;
52618;SDS011;38513;53.234;6.568;2023-06-04T04:57:46;13.45;;;7.57;;
52618;SDS011;38513;53.234;6.568;2023-06-04T05:00:12;13.05;;;7.28;;
52618;SDS011;38513;53.234;6.568;2023-06-04T05:02:39;12.07;;;7.32;;
52618;SDS011;38513;53.234;6.568;2023-06-04T05:05:05;17.88;;;8.30;;
52618;SDS011;38513;53.234;6.568;2023-06-04T05:07:31;12.98;;;8.45;;
52618;SDS011;38513;53.234;6.568;2023-06-04T05:09:58;13.85;;;7.95;;
52618;SDS011;38513;53.234;6.568;2023-06-04T05:12:29;15.32;;;8.77;;
52618;SDS011;38513;53.234;6.568;2023-06-04T05:14:58;15.07;;;8.98;;
52618;SDS011;38513;53.234;6.568;2023-06-04T05:17:25;19.00;;;9.20;;
52618;SDS011;38513;53.234;6.568;2023-06-04T05:19:55;18.13;;;9.80;;
52618;SDS011;38513;53.234;6.568;2023-06-04T05:22:39;18.57;;;10.60;;
52618;SDS011;38513;53.234;6.568;2023-06-04T05:25:06;17.85;;;10.10;;
52618;SDS011;38513;53.234;6.568;2023-06-04T05:27:33;16.10;;;9.73;;
52618;SDS011;38513;53.234;6.568;2023-06-04T05:30:01;16.95;;;9.77;;
52618;SDS011;38513;53.234;6.568;2023-06-04T05:32:28;18.08;;;11.15;;
52618;SDS011;38513;53.234;6.568;2023-06-04T05:34:56;17.05;;;10.48;;
52618;SDS011;38513;53.234;6.568;2023-06-04T05:37:23;19.63;;;10.30;;
52618;SDS011;38513;53.234;6.568;2023-06-04T05:39:49;16.83;;;10.50;;
52618;SDS011;38513;53.234;6.568;2023-06-04T05:42:16;19.23;;;10.60;;
52618;SDS011;38513;53.234;6.568;2023-06-04T05:44:42;18.80;;;9.63;;
52618;SDS011;38513;53.234;6.568;2023-06-04T05:47:08;18.20;;;10.73;;
52618;SDS011;38513;53.234;6.568;2023-06-04T05:49:34;18.80;;;9.87;;
52618;SDS011;38513;53.234;6.568;2023-06-04T05:52:00;16.27;;;9.75;;
52618;SDS011;38513;53.234;6.568;2023-06-04T05:54:28;19.20;;;10.18;;
52618;SDS011;38513;53.234;6.568;2023-06-04T05:56:55;18.47;;;9.53;;
52618;SDS011;38513;53.234;6.568;2023-06-04T05:59:23;19.17;;;9.85;;
52618;SDS011;38513;53.234;6.568;2023-06-04T06:01:50;16.40;;;9.20;;
52618;SDS011;38513;53.234;6.568;2023-06-04T06:04:17;15.77;;;7.95;;
52618;SDS011;38513;53.234;6.568;2023-06-04T06:06:43;16.08;;;8.63;;
52618;SDS011;38513;53.234;6.568;2023-06-04T06:09:12;17.25;;;8.10;;
52618;SDS011;38513;53.234;6.568;2023-06-04T06:11:38;17.27;;;8.55;;
52618;SDS011;38513;53.234;6.568;2023-06-04T06:14:04;18.35;;;7.15;;
52618;SDS011;38513;53.234;6.568;2023-06-04T06:16:30;15.90;;;6.00;;
52618;SDS011;38513;53.234;6.568;2023-06-04T06:18:58;14.68;;;6.50;;
52618;SDS011;38513;53.234;6.568;2023-06-04T06:21:24;14.60;;;6.38;;
52618;SDS011;38513;53.234;6.568;2023-06-04T06:23:51;15.98;;;6.70;;
52618;SDS011;38513;53.234;6.568;2023-06-04T06:26:17;15.20;;;6.77;;
52618;SDS011;38513;53.234;6.568;2023-06-04T06:28:44;14.55;;;6.25;;
52618;SDS011;38513;53.234;6.568;2023-06-04T06:31:18;11.57;;;5.97;;
52618;SDS011;38513;53.234;6.568;2023-06-04T06:33:51;14.27;;;6.07;;
52618;SDS011;38513;53.234;6.568;2023-06-04T06:36:17;13.98;;;5.47;;
52618;SDS011;38513;53.234;6.568;2023-06-04T06:38:45;13.80;;;5.53;;
52618;SDS011;38513;53.234;6.568;2023-06-04T06:41:11;13.30;;;4.97;;
52618;SDS011;38513;53.234;6.568;2023-06-04T06:43:37;13.25;;;4.72;;
52618;SDS011;38513;53.234;6.568;2023-06-04T06:46:03;12.77;;;4.20;;
52618;SDS011;38513;53.234;6.568;2023-06-04T06:48:29;13.80;;;4.00;;
52618;SDS011;38513;53.234;6.568;2023-06-04T06:50:56;10.13;;;3.13;;
52618;SDS011;38513;53.234;6.568;2023-06-04T06:53:22;10.57;;;2.80;;
52618;SDS011;38513;53.234;6.568;2023-06-04T06:55:48;7.75;;;2.85;;
52618;SDS011;38513;53.234;6.568;2023-06-04T06:58:14;9.77;;;3.03;;
52618;SDS011;38513;53.234;6.568;2023-06-04T07:00:43;10.05;;;3.25;;
52618;SDS011;38513;53.234;6.568;2023-06-04T07:03:09;10.68;;;3.22;;
52618;SDS011;38513;53.234;6.568;2023-06-04T07:05:36;11.13;;;4.00;;
52618;SDS011;38513;53.234;6.568;2023-06-04T07:08:02;7.80;;;2.85;;
52618;SDS011;38513;53.234;6.568;2023-06-04T07:10:29;8.00;;;2.23;;
52618;SDS011;38513;53.234;6.568;2023-06-04T07:12:55;11.23;;;5.53;;
52618;SDS011;38513;53.234;6.568;2023-06-04T07:15:21;16.40;;;8.30;;
52618;SDS011;38513;53.234;6.568;2023-06-04T07:17:48;11.10;;;4.00;;
52618;SDS011;38513;53.234;6.568;2023-06-04T07:20:14;6.93;;;2.23;;
52618;SDS011;38513;53.234;6.568;2023-06-04T07:22:41;7.63;;;2.20;;
52618;SDS011;38513;53.234;6.568;2023-06-04T07:25:07;8.63;;;2.30;;
52618;SDS011;38513;53.234;6.568;2023-06-04T07:27:34;6.55;;;2.10;;
52618;SDS011;38513;53.234;6.568;2023-06-04T07:30:03;8.95;;;2.20;;
52618;SDS011;38513;53.234;6.568;2023-06-04T07:32:29;6.88;;;2.22;;
52618;SDS011;38513;53.234;6.568;2023-06-04T07:34:55;7.87;;;2.37;;
52618;SDS011;38513;53.234;6.568;2023-06-04T07:37:22;7.03;;;2.15;;
52618;SDS011;38513;53.234;6.568;2023-06-04T07:39:48;9.25;;;2.45;;
52618;SDS011;38513;53.234;6.568;2023-06-04T07:42:14;7.85;;;2.53;;
52618;SDS011;38513;53.234;6.568;2023-06-04T07:44:43;7.18;;;2.08;;
52618;SDS011;38513;53.234;6.568;2023-06-04T07:47:09;7.40;;;2.40;;
52618;SDS011;38513;53.234;6.568;2023-06-04T07:49:35;7.33;;;2.20;;
52618;SDS011;38513;53.234;6.568;2023-06-04T07:52:02;7.55;;;2.20;;
52618;SDS011;38513;53.234;6.568;2023-06-04T07:54:28;7.00;;;2.40;;
52618;SDS011;38513;53.234;6.568;2023-06-04T07:56:54;8.05;;;2.70;;
52618;SDS011;38513;53.234;6.568;2023-06-04T07:59:24;7.68;;;2.63;;
52618;SDS011;38513;53.234;6.568;2023-06-04T08:01:50;10.90;;;2.80;;
52618;SDS011;38513;53.234;6.568;2023-06-04T08:04:17;9.70;;;2.85;;
52618;SDS011;38513;53.234;6.568;2023-06-04T08:06:43;6.95;;;2.35;;
52618;SDS011;38513;53.234;6.568;2023-06-04T08:09:10;7.72;;;2.25;;
52618;SDS011;38513;53.234;6.568;2023-06-04T08:11:37;7.90;;;2.47;;
52618;SDS011;38513;53.234;6.568;2023-06-04T08:14:03;8.43;;;2.40;;
52618;SDS011;38513;53.234;6.568;2023-06-04T08:16:31;7.28;;;2.20;;
52618;SDS011;38513;53.234;6.568;2023-06-04T08:18:57;8.27;;;2.60;;
52618;SDS011;38513;53.234;6.568;2023-06-04T08:21:26;8.07;;;2.40;;
52618;SDS011;38513;53.234;6.568;2023-06-04T08:23:53;8.20;;;2.15;;
52618;SDS011;38513;53.234;6.568;2023-06-04T08:26:20;7.78;;;2.47;;
52618;SDS011;38513;53.234;6.568;2023-06-04T08:28:52;5.82;;;2.33;;
52618;SDS011;38513;53.234;6.568;2023-06-04T08:31:19;8.00;;;2.10;;
52618;SDS011;38513;53.234;6.568;2023-06-04T08:33:45;7.70;;;2.25;;
52618;SDS011;38513;53.234;6.568;2023-06-04T08:36:12;8.27;;;2.10;;
52618;SDS011;38513;53.234;6.568;2023-06-04T08:38:38;6.57;;;2.20;;
52618;SDS011;38513;53.234;6.568;2023-06-04T08:41:18;7.38;;;2.10;;
52618;SDS011;38513;53.234;6.568;2023-06-04T08:43:46;8.07;;;2.20;;
52618;SDS011;38513;53.234;6.568;2023-06-04T08:46:15;7.25;;;2.10;;
52618;SDS011;38513;53.234;6.568;2023-06-04T08:48:41;7.10;;;2.40;;
52618;SDS011;38513;53.234;6.568;2023-06-04T08:51:07;7.18;;;2.45;;
52618;SDS011;38513;53.234;6.568;2023-06-04T08:53:35;7.25;;;2.13;;
52618;SDS011;38513;53.234;6.568;2023-06-04T08:56:02;7.40;;;2.33;;
52618;SDS011;38513;53.234;6.568;2023-06-04T08:58:31;7.57;;;2.08;;
52618;SDS011;38513;53.234;6.568;2023-06-04T09:01:01;7.20;;;2.15;;
52618;SDS011;38513;53.234;6.568;2023-06-04T09:03:28;6.10;;;2.10;;
52618;SDS011;38513;53.234;6.568;2023-06-04T09:05:58;6.65;;;2.03;;
52618;SDS011;38513;53.234;6.568;2023-06-04T09:08:26;7.65;;;2.30;;
52618;SDS011;38513;53.234;6.568;2023-06-04T09:10:53;7.85;;;2.40;;
52618;SDS011;38513;53.234;6.568;2023-06-04T09:13:21;6.90;;;1.80;;
52618;SDS011;38513;53.234;6.568;2023-06-04T09:16:00;6.25;;;2.05;;
52618;SDS011;38513;53.234;6.568;2023-06-04T09:18:27;5.53;;;1.80;;
52618;SDS011;38513;53.234;6.568;2023-06-04T09:21:00;9.10;;;2.20;;
52618;SDS011;38513;53.234;6.568;2023-06-04T09:23:27;6.85;;;1.95;;
52618;SDS011;38513;53.234;6.568;2023-06-04T09:25:53;6.82;;;2.35;;
52618;SDS011;38513;53.234;6.568;2023-06-04T09:28:20;5.88;;;1.90;;
52618;SDS011;38513;53.234;6.568;2023-06-04T09:30:53;7.13;;;2.20;;
52618;SDS011;38513;53.234;6.568;2023-06-04T09:33:19;5.72;;;2.10;;
52618;SDS011;38513;53.234;6.568;2023-06-04T09:35:55;6.20;;;2.00;;
52618;SDS011;38513;53.234;6.568;2023-06-04T09:38:22;6.70;;;1.90;;
52618;SDS011;38513;53.234;6.568;2023-06-04T09:40:48;6.30;;;2.00;;
52618;SDS011;38513;53.234;6.568;2023-06-04T09:43:21;5.57;;;1.92;;
52618;SDS011;38513;53.234;6.568;2023-06-04T09:45:48;6.05;;;2.10;;
52618;SDS011;38513;53.234;6.568;2023-06-04T09:48:21;6.13;;;2.00;;
52618;SDS011;38513;53.234;6.568;2023-06-04T09:50:47;6.63;;;2.10;;
52618;SDS011;38513;53.234;6.568;2023-06-04T09:53:14;6.20;;;2.00;;
52618;SDS011;38513;53.234;6.568;2023-06-04T09:55:41;5.82;;;1.75;;
52618;SDS011;38513;53.234;6.568;2023-06-04T09:58:07;6.25;;;1.90;;
52618;SDS011;38513;53.234;6.568;2023-06-04T10:00:37;7.15;;;2.20;;
52618;SDS011;38513;53.234;6.568;2023-06-04T10:03:03;7.75;;;2.25;;
52618;SDS011;38513;53.234;6.568;2023-06-04T10:05:31;5.75;;;1.92;;
52618;SDS011;38513;53.234;6.568;2023-06-04T10:07:59;6.13;;;1.90;;
52618;SDS011;38513;53.234;6.568;2023-06-04T10:10:27;5.75;;;1.83;;
52618;SDS011;38513;53.234;6.568;2023-06-04T10:12:56;6.72;;;1.92;;
52618;SDS011;38513;53.234;6.568;2023-06-04T10:15:28;7.40;;;2.20;;
52618;SDS011;38513;53.234;6.568;2023-06-04T10:17:57;5.32;;;1.70;;
52618;SDS011;38513;53.234;6.568;2023-06-04T10:20:23;6.22;;;1.80;;
52618;SDS011;38513;53.234;6.568;2023-06-04T10:22:50;7.20;;;1.85;;
52618;SDS011;38513;53.234;6.568;2023-06-04T10:25:16;5.97;;;1.70;;
52618;SDS011;38513;53.234;6.568;2023-06-04T10:27:47;7.93;;;2.10;;
52618;SDS011;38513;53.234;6.568;2023-06-04T10:30:14;6.15;;;2.00;;
52618;SDS011;38513;53.234;6.568;2023-06-04T10:32:41;6.35;;;1.95;;
52618;SDS011;38513;53.234;6.568;2023-06-04T10:35:07;6.53;;;1.95;;
52618;SDS011;38513;53.234;6.568;2023-06-04T10:37:33;7.88;;;2.10;;
52618;SDS011;38513;53.234;6.568;2023-06-04T10:40:00;7.20;;;2.00;;
52618;SDS011;38513;53.234;6.568;2023-06-04T10:42:26;6.30;;;2.05;;
52618;SDS011;38513;53.234;6.568;2023-06-04T10:44:52;5.60;;;1.63;;
52618;SDS011;38513;53.234;6.568;2023-06-04T10:47:23;5.88;;;1.70;;
52618;SDS011;38513;53.234;6.568;2023-06-04T10:49:49;4.60;;;1.60;;
52618;SDS011;38513;53.234;6.568;2023-06-04T10:52:19;4.67;;;1.83;;
52618;SDS011;38513;53.234;6.568;2023-06-04T10:54:46;5.53;;;1.88;;
52618;SDS011;38513;53.234;6.568;2023-06-04T10:57:17;5.07;;;1.70;;
52618;SDS011;38513;53.234;6.568;2023-06-04T10:59:56;19.20;;;2.80;;
52618;SDS011;38513;53.234;6.568;2023-06-04T11:02:23;16.05;;;2.55;;
52618;SDS011;38513;53.234;6.568;2023-06-04T11:05:01;13.23;;;2.53;;
52618;SDS011;38513;53.234;6.568;2023-06-04T11:07:40;7.18;;;2.00;;
52618;SDS011;38513;53.234;6.568;2023-06-04T11:10:08;6.57;;;2.20;;
52618;SDS011;38513;53.234;6.568;2023-06-04T11:12:48;6.53;;;2.10;;
52618;SDS011;38513;53.234;6.568;2023-06-04T11:15:18;6.70;;;2.17;;
52618;SDS011;38513;53.234;6.568;2023-06-04T11:17:51;6.20;;;1.70;;
52618;SDS011;38513;53.234;6.568;2023-06-04T11:20:18;6.15;;;1.98;;
52618;SDS011;38513;53.234;6.568;2023-06-04T11:22:54;5.80;;;1.95;;
52618;SDS011;38513;53.234;6.568;2023-06-04T11:25:21;7.53;;;1.80;;
52618;SDS011;38513;53.234;6.568;2023-06-04T11:27:48;5.28;;;1.80;;
52618;SDS011;38513;53.234;6.568;2023-06-04T11:30:18;5.60;;;1.95;;
52618;SDS011;38513;53.234;6.568;2023-06-04T11:32:44;7.18;;;2.10;;
52618;SDS011;38513;53.234;6.568;2023-06-04T11:35:10;6.03;;;1.80;;
52618;SDS011;38513;53.234;6.568;2023-06-04T11:37:37;5.43;;;1.90;;
52618;SDS011;38513;53.234;6.568;2023-06-04T11:40:16;7.60;;;2.15;;
52618;SDS011;38513;53.234;6.568;2023-06-04T11:42:46;6.43;;;2.13;;
52618;SDS011;38513;53.234;6.568;2023-06-04T11:45:13;6.78;;;2.00;;
52618;SDS011;38513;53.234;6.568;2023-06-04T11:47:52;5.55;;;2.00;;
52618;SDS011;38513;53.234;6.568;2023-06-04T11:50:19;7.63;;;2.40;;
52618;SDS011;38513;53.234;6.568;2023-06-04T11:52:47;5.75;;;1.98;;
52618;SDS011;38513;53.234;6.568;2023-06-04T11:55:13;5.95;;;2.10;;
52618;SDS011;38513;53.234;6.568;2023-06-04T11:57:40;6.53;;;2.13;;
52618;SDS011;38513;53.234;6.568;2023-06-04T12:00:09;7.55;;;2.20;;
52618;SDS011;38513;53.234;6.568;2023-06-04T12:02:48;5.72;;;1.75;;
52618;SDS011;38513;53.234;6.568;2023-06-04T12:05:16;7.43;;;2.00;;
52618;SDS011;38513;53.234;6.568;2023-06-04T12:07:47;6.32;;;1.75;;
52618;SDS011;38513;53.234;6.568;2023-06-04T12:10:16;6.20;;;2.03;;
52618;SDS011;38513;53.234;6.568;2023-06-04T12:12:42;5.90;;;1.77;;
52618;SDS011;38513;53.234;6.568;2023-06-04T12:15:08;6.45;;;1.80;;
52618;SDS011;38513;53.234;6.568;2023-06-04T12:17:35;6.20;;;1.90;;
52618;SDS011;38513;53.234;6.568;2023-06-04T12:20:04;6.33;;;1.60;;
52618;SDS011;38513;53.234;6.568;2023-06-04T12:22:31;5.85;;;1.98;;
52618;SDS011;38513;53.234;6.568;2023-06-04T12:24:57;5.38;;;1.63;;
52618;SDS011;38513;53.234;6.568;2023-06-04T12:27:25;5.60;;;1.60;;
52618;SDS011;38513;53.234;6.568;2023-06-04T12:29:58;6.53;;;1.70;;
52618;SDS011;38513;53.234;6.568;2023-06-04T12:32:25;6.90;;;1.95;;
52618;SDS011;38513;53.234;6.568;2023-06-04T12:34:51;6.05;;;1.70;;
52618;SDS011;38513;53.234;6.568;2023-06-04T12:37:18;5.75;;;1.77;;
52618;SDS011;38513;53.234;6.568;2023-06-04T12:39:44;7.10;;;1.85;;
52618;SDS011;38513;53.234;6.568;2023-06-04T12:42:13;7.15;;;1.98;;
52618;SDS011;38513;53.234;6.568;2023-06-04T12:44:39;5.67;;;1.80;;
52618;SDS011;38513;53.234;6.568;2023-06-04T12:47:06;6.23;;;1.93;;
52618;SDS011;38513;53.234;6.568;2023-06-04T12:49:32;6.45;;;1.77;;
52618;SDS011;38513;53.234;6.568;2023-06-04T12:51:58;6.50;;;1.73;;
52618;SDS011;38513;53.234;6.568;2023-06-04T12:54:25;5.13;;;1.70;;
52618;SDS011;38513;53.234;6.568;2023-06-04T12:56:52;6.43;;;1.77;;
52618;SDS011;38513;53.234;6.568;2023-06-04T12:59:19;7.20;;;1.90;;
52618;SDS011;38513;53.234;6.568;2023-06-04T13:01:48;5.88;;;1.60;;
52618;SDS011;38513;53.234;6.568;2023-06-04T13:04:14;6.73;;;2.03;;
52618;SDS011;38513;53.234;6.568;2023-06-04T13:06:48;6.85;;;1.80;;
52618;SDS011;38513;53.234;6.568;2023-06-04T13:09:17;8.90;;;2.10;;
52618;SDS011;38513;53.234;6.568;2023-06-04T13:11:45;7.07;;;1.70;;
52618;SDS011;38513;53.234;6.568;2023-06-04T13:14:11;5.77;;;1.83;;
52618;SDS011;38513;53.234;6.568;2023-06-04T13:16:38;7.55;;;1.73;;
52618;SDS011;38513;53.234;6.568;2023-06-04T13:19:05;5.65;;;1.50;;
52618;SDS011;38513;53.234;6.568;2023-06-04T13:21:31;6.00;;;1.70;;
52618;SDS011;38513;53.234;6.568;2023-06-04T13:23:57;6.80;;;1.85;;
52618;SDS011;38513;53.234;6.568;2023-06-04T13:26:23;5.45;;;1.55;;
52618;SDS011;38513;53.234;6.568;2023-06-04T13:28:50;6.63;;;1.90;;
52618;SDS011;38513;53.234;6.568;2023-06-04T13:31:17;5.85;;;2.00;;
52618;SDS011;38513;53.234;6.568;2023-06-04T13:33:43;5.85;;;1.83;;
52618;SDS011;38513;53.234;6.568;2023-06-04T13:36:09;8.45;;;2.05;;
52618;SDS011;38513;53.234;6.568;2023-06-04T13:38:35;5.97;;;1.80;;
52618;SDS011;38513;53.234;6.568;2023-06-04T13:41:06;5.63;;;1.70;;
52618;SDS011;38513;53.234;6.568;2023-06-04T13:43:32;6.75;;;2.03;;
52618;SDS011;38513;53.234;6.568;2023-06-04T13:45:58;7.15;;;1.88;;
52618;SDS011;38513;53.234;6.568;2023-06-04T13:48:24;6.82;;;2.00;;
52618;SDS011;38513;53.234;6.568;2023-06-04T13:50:50;8.00;;;1.77;;
52618;SDS011;38513;53.234;6.568;2023-06-04T13:53:17;5.55;;;1.70;;
52618;SDS011;38513;53.234;6.568;2023-06-04T13:55:43;7.63;;;2.20;;
52618;SDS011;38513;53.234;6.568;2023-06-04T13:58:09;7.05;;;2.03;;
52618;SDS011;38513;53.234;6.568;2023-06-04T14:00:35;8.45;;;1.90;;
52618;SDS011;38513;53.234;6.568;2023-06-04T14:03:02;5.82;;;1.80;;
52618;SDS011;38513;53.234;6.568;2023-06-04T14:05:28;6.82;;;1.90;;
52618;SDS011;38513;53.234;6.568;2023-06-04T14:07:55;6.57;;;2.15;;
52618;SDS011;38513;53.234;6.568;2023-06-04T14:10:21;6.70;;;1.98;;
52618;SDS011;38513;53.234;6.568;2023-06-04T14:12:47;6.95;;;2.10;;
52618;SDS011;38513;53.234;6.568;2023-06-04T14:15:13;6.72;;;2.00;;
52618;SDS011;38513;53.234;6.568;2023-06-04T14:17:39;6.38;;;1.60;;
52618;SDS011;38513;53.234;6.568;2023-06-04T14:20:06;6.07;;;1.70;;
52618;SDS011;38513;53.234;6.568;2023-06-04T14:22:39;7.88;;;1.90;;
52618;SDS011;38513;53.234;6.568;2023-06-04T14:25:06;6.05;;;1.80;;
52618;SDS011;38513;53.234;6.568;2023-06-04T14:27:33;5.87;;;1.70;;
52618;SDS011;38513;53.234;6.568;2023-06-04T14:30:00;6.68;;;2.08;;
52618;SDS011;38513;53.234;6.568;2023-06-04T14:32:26;6.90;;;2.10;;
52618;SDS011;38513;53.234;6.568;2023-06-04T14:34:52;7.20;;;1.83;;
52618;SDS011;38513;53.234;6.568;2023-06-04T14:37:20;6.00;;;1.98;;
52618;SDS011;38513;53.234;6.568;2023-06-04T14:39:46;8.73;;;2.30;;
52618;SDS011;38513;53.234;6.568;2023-06-04T14:42:13;5.53;;;1.75;;
52618;SDS011;38513;53.234;6.568;2023-06-04T14:44:42;6.32;;;2.25;;